Terminal Aerodrome Forecast
Issued by NWS Green Bay, WI

Home | Current Version | Previous Version | Text Only | Print | Product List | Glossary Off
Versions: 1 2 3 4 5 6 7 8 9 10 11 12 13 14 15 16 17 18 19 20 21 22 23 24 25 26 27 28 29 30 31 32 33 34 35 36 37 38 39 40

459
FTUS43 KGRB 281940 AAB
TAFGRB
TAF AMD
KGRB 281940Z 2820/2918 04012KT P6SM VCSH BKN015 OVC050
      TEMPO 2820/2824 4SM -SHRA BKN010 OVC030
     FM290800 04010KT P6SM BKN050
     FM291500 06008KT P6SM SCT035 SCT050=

USA.gov is the U.S. government's official web portal to all federal, state and local government web resources and services.